Time;durP1;ratioP1;P1;durP2;ratioP2;P2;SDS_P1;SDS_P2;PMS_P1;PMS_P2;Temp;Humidity;BMP_temperature;BMP_pressure;BME280_temperature;BME280_humidity;BME280_pressure;Samples;Min_cycle;Max_cycle;Signal;HPM_P1;HPM_P2
2021/01/29 00:01:58;;;;;;;1.65;1.55;;;9.20;85.50;;;;;;4980439;28;20034;-66
2021/01/29 00:04:24;;;;;;;1.42;1.33;;;9.30;85.50;;;;;;4997963;28;20034;-66
2021/01/29 00:06:50;;;;;;;1.55;1.45;;;9.30;85.50;;;;;;4997961;28;20041;-64
2021/01/29 00:09:16;;;;;;;1.33;1.20;;;9.30;85.60;;;;;;4994803;28;20035;-66
2021/01/29 00:11:42;;;;;;;1.10;1.10;;;9.30;85.60;;;;;;4978097;28;20061;-66
2021/01/29 00:14:07;;;;;;;1.27;1.20;;;9.30;85.70;;;;;;4998122;28;20046;-65
2021/01/29 00:16:33;;;;;;;1.40;1.30;;;9.30;85.70;;;;;;4998663;28;20069;-66
2021/01/29 00:18:59;;;;;;;1.20;1.20;;;9.30;85.70;;;;;;4982550;28;20033;-65
2021/01/29 00:21:24;;;;;;;1.50;1.40;;;9.30;85.70;;;;;;4997943;28;20037;-65
2021/01/29 00:23:50;;;;;;;1.48;1.38;;;9.30;85.60;;;;;;4999945;28;20035;-66
2021/01/29 00:26:16;;;;;;;1.40;1.30;;;9.30;85.70;;;;;;4999211;28;20120;-65
2021/01/29 00:28:41;;;;;;;1.10;1.10;;;9.30;85.90;;;;;;5000370;28;20038;-66
2021/01/29 00:31:07;;;;;;;1.15;1.13;;;9.30;86.00;;;;;;4996160;28;20045;-66
2021/01/29 00:33:33;;;;;;;1.30;1.20;;;9.30;86.00;;;;;;4998972;28;20576;-66
2021/01/29 00:35:58;;;;;;;1.35;1.30;;;9.30;86.20;;;;;;4998155;28;20049;-66
2021/01/29 00:38:24;;;;;;;1.20;1.20;;;9.30;86.40;;;;;;4997734;28;20026;-66
2021/01/29 00:40:50;;;;;;;1.10;1.10;;;9.40;86.60;;;;;;4996952;28;20173;-66
2021/01/29 00:43:15;;;;;;;1.10;1.10;;;9.30;86.60;;;;;;4998012;28;20902;-66
2021/01/29 00:45:42;;;;;;;1.10;1.10;;;9.40;86.70;;;;;;4999604;28;20026;-66
2021/01/29 00:48:09;;;;;;;1.20;1.20;;;9.40;86.70;;;;;;4996218;28;20038;-65
2021/01/29 00:50:35;;;;;;;1.10;1.10;;;9.40;86.70;;;;;;4995531;28;20532;-65
2021/01/29 00:53:01;;;;;;;1.48;1.38;;;9.40;86.70;;;;;;4998440;28;20100;-65
2021/01/29 00:55:27;;;;;;;1.13;1.10;;;9.40;86.60;;;;;;4997981;28;20517;-66
2021/01/29 00:57:53;;;;;;;1.10;1.10;;;9.40;86.60;;;;;;4997856;28;20093;-66
2021/01/29 01:00:19;;;;;;;1.15;1.05;;;9.40;86.50;;;;;;4997523;28;20608;-65
2021/01/29 01:02:45;;;;;;;1.08;1.05;;;9.40;86.50;;;;;;4996277;28;20046;-66
2021/01/29 01:05:14;;;;;;;1.15;1.10;;;9.50;86.60;;;;;;4997120;28;20115;-66
2021/01/29 01:07:39;;;;;;;1.10;1.02;;;9.50;86.60;;;;;;4997643;28;20069;-66
2021/01/29 01:10:07;;;;;;;1.63;1.38;;;9.50;86.60;;;;;;4996102;28;20064;-65
2021/01/29 01:12:33;;;;;;;1.27;1.17;;;9.50;86.70;;;;;;4995577;28;20049;-66
2021/01/29 01:14:58;;;;;;;1.40;1.13;;;9.50;86.70;;;;;;4998704;28;20033;-65
2021/01/29 01:17:24;;;;;;;1.45;1.20;;;9.50;86.60;;;;;;4996983;28;20042;-65
2021/01/29 01:19:50;;;;;;;1.02;0.95;;;9.50;86.70;;;;;;4998648;28;20050;-66
2021/01/29 01:22:16;;;;;;;1.02;1.00;;;9.50;86.70;;;;;;4996479;28;20033;-65
2021/01/29 01:24:41;;;;;;;1.10;1.10;;;9.60;86.70;;;;;;4998007;28;20038;-66
2021/01/29 01:27:08;;;;;;;1.20;1.10;;;9.60;86.70;;;;;;4997948;28;20046;-66
2021/01/29 01:29:34;;;;;;;1.02;1.02;;;9.60;86.70;;;;;;4996054;28;20041;-66
2021/01/29 01:32:00;;;;;;;1.10;1.00;;;9.60;86.60;;;;;;4995458;28;20413;-66
2021/01/29 01:34:26;;;;;;;1.20;1.00;;;9.60;86.50;;;;;;4996722;28;20057;-66
2021/01/29 01:36:52;;;;;;;1.00;1.00;;;9.60;86.40;;;;;;4995322;28;20042;-65
2021/01/29 01:39:18;;;;;;;2.13;1.23;;;9.60;86.40;;;;;;4996961;28;20034;-66
2021/01/29 01:41:43;;;;;;;1.10;1.10;;;9.60;86.20;;;;;;4996533;28;20030;-66
2021/01/29 01:44:29;;;;;;;0.70;0.70;;;9.70;86.20;;;;;;4997776;28;20116;-66
2021/01/29 01:46:55;;;;;;;1.13;0.90;;;9.70;86.60;;;;;;4995640;28;20038;-65
2021/01/29 01:49:25;;;;;;;2.55;0.90;;;9.60;86.30;;;;;;4998866;28;20038;-66
2021/01/29 01:52:01;;;;;;;0.77;0.77;;;9.60;86.40;;;;;;4995748;28;20493;-66
2021/01/29 01:54:45;;;;;;;1.45;0.98;;;9.60;86.50;;;;;;4997875;28;20050;-65
2021/01/29 01:57:13;;;;;;;0.80;0.80;;;9.60;86.40;;;;;;4997351;28;20100;-66
2021/01/29 01:59:47;;;;;;;1.10;0.80;;;9.60;86.30;;;;;;4997725;28;20046;-66
2021/01/29 02:02:15;;;;;;;0.70;0.70;;;9.60;86.40;;;;;;4996750;28;20041;-65
2021/01/29 02:04:45;;;;;;;0.73;0.73;;;9.60;86.30;;;;;;4980770;28;20038;-65
2021/01/29 02:07:25;;;;;;;0.80;0.80;;;9.60;86.30;;;;;;4994805;28;20037;-65
2021/01/29 02:09:51;;;;;;;0.90;0.90;;;9.60;86.40;;;;;;4993896;28;20509;-65
2021/01/29 02:12:18;;;;;;;0.88;0.88;;;9.60;86.10;;;;;;4996973;28;20057;-65
2021/01/29 02:14:45;;;;;;;0.80;0.80;;;9.60;86.20;;;;;;4995986;28;20108;-66
2021/01/29 02:17:24;;;;;;;0.75;0.73;;;9.50;86.00;;;;;;4996295;28;20042;-66
2021/01/29 02:20:11;;;;;;;0.80;0.80;;;9.50;86.10;;;;;;4997656;28;20030;-65
2021/01/29 02:23:12;;;;;;;0.60;0.60;;;9.50;86.40;;;;;;4999163;28;20121;-65
2021/01/29 02:26:05;;;;;;;0.20;0.20;;;9.50;86.40;;;;;;5000915;28;20069;-66
2021/01/29 02:28:46;;;;;;;0.15;0.13;;;9.50;86.70;;;;;;5001078;28;20034;-65
2021/01/29 02:31:23;;;;;;;0.77;0.25;;;9.40;86.70;;;;;;5000534;28;20116;-65
2021/01/29 02:34:07;;;;;;;0.25;0.20;;;9.40;87.30;;;;;;5000561;28;20034;-66
2021/01/29 02:36:55;;;;;;;1.20;0.30;;;9.50;87.60;;;;;;5001755;28;20173;-66
2021/01/29 02:39:25;;;;;;;0.55;0.30;;;9.50;87.30;;;;;;4998098;28;20034;-65
2021/01/29 02:42:01;;;;;;;0.30;0.30;;;9.50;87.40;;;;;;4999223;28;20115;-66
2021/01/29 02:44:45;;;;;;;0.32;0.20;;;9.50;87.30;;;;;;5001127;28;20795;-65
2021/01/29 02:47:20;;;;;;;0.40;0.40;;;9.50;87.40;;;;;;4999658;28;20505;-66
2021/01/29 02:50:03;;;;;;;0.52;0.20;;;9.60;87.60;;;;;;5000718;28;20038;-65
2021/01/29 02:52:42;;;;;;;0.30;0.30;;;9.60;87.50;;;;;;4998587;28;20050;-65
2021/01/29 02:55:25;;;;;;;0.50;0.40;;;9.60;87.30;;;;;;5001043;28;20038;-66
2021/01/29 02:57:54;;;;;;;0.57;0.40;;;9.60;87.40;;;;;;4998994;28;20038;-65
2021/01/29 03:00:26;;;;;;;0.55;0.32;;;9.60;87.20;;;;;;4999487;28;20042;-66
2021/01/29 03:03:01;;;;;;;0.30;0.30;;;9.60;87.10;;;;;;5000666;28;20564;-66
2021/01/29 03:05:49;;;;;;;0.50;0.30;;;9.70;87.10;;;;;;4998699;28;20081;-66
2021/01/29 03:08:33;;;;;;;0.28;0.28;;;9.70;87.00;;;;;;4997081;28;20030;-66
2021/01/29 03:11:09;;;;;;;0.40;0.40;;;9.70;86.90;;;;;;4996637;28;20105;-66
2021/01/29 03:13:45;;;;;;;0.55;0.30;;;9.70;86.70;;;;;;4997798;28;20041;-66
2021/01/29 03:16:15;;;;;;;0.50;0.40;;;9.70;86.60;;;;;;5000396;28;20038;-66
2021/01/29 03:18:57;;;;;;;0.75;0.50;;;9.70;86.50;;;;;;4999285;28;20089;-65
2021/01/29 03:21:30;;;;;;;0.70;0.38;;;9.70;86.40;;;;;;4998336;28;20085;-66
2021/01/29 03:24:09;;;;;;;0.30;0.30;;;9.80;86.40;;;;;;4999638;28;20457;-66
2021/01/29 03:26:43;;;;;;;1.90;0.50;;;9.80;86.20;;;;;;5000293;28;20139;-66
2021/01/29 03:29:13;;;;;;;0.40;0.30;;;9.80;86.10;;;;;;4997780;28;20041;-66
2021/01/29 03:31:43;;;;;;;1.75;0.30;;;9.80;86.00;;;;;;4998554;28;20494;-66
2021/01/29 03:34:25;;;;;;;1.20;0.32;;;9.80;86.00;;;;;;5000235;28;20141;-66
2021/01/29 03:37:02;;;;;;;0.43;0.40;;;9.80;85.90;;;;;;4999613;28;20172;-66
2021/01/29 03:39:34;;;;;;;0.20;0.20;;;9.80;85.80;;;;;;5000159;28;20120;-66
2021/01/29 03:42:19;;;;;;;0.30;0.20;;;9.80;85.80;;;;;;4999699;28;20034;-66
2021/01/29 03:45:23;;;;;;;0.30;0.20;;;9.80;85.70;;;;;;4988063;28;20502;-66
2021/01/29 03:48:10;;;;;;;1.13;0.30;;;9.80;85.70;;;;;;4954849;28;20470;-65
2021/01/29 03:51:02;;;;;;;0.80;0.20;;;9.80;85.50;;;;;;4997211;28;20049;-66
2021/01/29 03:53:57;;;;;;;1.13;0.17;;;9.80;85.30;;;;;;4998221;28;20739;-66
2021/01/29 03:56:41;;;;;;;0.50;0.30;;;9.80;85.20;;;;;;4985447;28;20686;-65
2021/01/29 03:59:13;;;;;;;0.60;0.20;;;9.80;85.10;;;;;;4999653;28;20102;-64
2021/01/29 04:02:11;;;;;;;0.20;0.20;;;9.80;85.00;;;;;;4997987;28;20026;-66
2021/01/29 04:05:05;;;;;;;1.10;0.22;;;9.80;85.00;;;;;;4997675;28;20121;-66
2021/01/29 04:07:50;;;;;;;0.50;0.20;;;9.80;85.00;;;;;;4997918;28;20107;-66
2021/01/29 04:10:19;;;;;;;0.30;0.20;;;9.80;85.00;;;;;;4996923;28;20038;-65
2021/01/29 04:12:58;;;;;;;0.40;0.30;;;9.70;84.90;;;;;;4996052;28;20163;-67
2021/01/29 04:15:34;;;;;;;1.00;0.30;;;9.70;84.90;;;;;;4998293;28;20037;-66
2021/01/29 04:18:21;;;;;;;1.02;0.20;;;9.70;85.00;;;;;;4997445;28;20470;-66
2021/01/29 04:20:53;;;;;;;1.95;0.20;;;9.70;85.00;;;;;;4993994;28;20045;-66
2021/01/29 04:23:59;;;;;;;1.40;0.20;;;9.70;85.80;;;;;;4977625;28;20035;-65
2021/01/29 04:26:28;;;;;;;0.43;0.15;;;9.70;84.90;;;;;;4977726;28;20494;-65
2021/01/29 04:29:00;;;;;;;0.28;0.13;;;9.60;84.80;;;;;;4978265;28;20039;-66
2021/01/29 04:31:26;;;;;;;0.20;0.10;;;9.60;84.80;;;;;;4977573;28;20038;-66
2021/01/29 04:33:57;;;;;;;0.30;0.20;;;9.60;84.70;;;;;;4991235;28;20030;-66
2021/01/29 04:36:28;;;;;;;6.32;4.93;;;9.60;84.60;;;;;;4996437;28;20096;-67
2021/01/29 04:39:07;;;;;;;1.00;0.90;;;9.50;84.50;;;;;;4996751;28;20125;-66
2021/01/29 04:41:45;;;;;;;3.83;3.30;;;9.50;84.30;;;;;;4994105;28;20527;-66
2021/01/29 04:44:31;;;;;;;0.80;0.80;;;9.50;84.20;;;;;;4995228;28;20037;-65
2021/01/29 04:47:19;;;;;;;0.32;0.17;;;9.50;84.20;;;;;;4995105;28;20041;-65
2021/01/29 04:50:06;;;;;;;0.22;0.20;;;9.50;84.10;;;;;;4996329;28;20087;-65
2021/01/29 04:52:40;;;;;;;0.85;0.40;;;9.40;84.10;;;;;;4993335;28;20549;-66
2021/01/29 04:55:14;;;;;;;0.30;0.30;;;9.50;84.10;;;;;;4994845;28;20077;-66
2021/01/29 04:57:55;;;;;;;0.43;0.20;;;9.40;84.10;;;;;;4992945;28;20038;-66
2021/01/29 05:00:59;;;;;;;1.67;0.50;;;9.40;84.00;;;;;;4993512;28;20065;-66
2021/01/29 05:03:44;;;;;;;1.05;0.55;;;9.40;84.00;;;;;;4994907;28;20092;-66
2021/01/29 05:06:17;;;;;;;0.77;0.77;;;9.30;84.00;;;;;;4996394;28;20134;-66
2021/01/29 05:09:06;;;;;;;0.30;0.30;;;9.30;84.00;;;;;;4998093;28;20093;-65
2021/01/29 05:11:59;;;;;;;1.00;0.88;;;9.30;84.10;;;;;;4994380;28;20123;-66
2021/01/29 05:14:55;;;;;;;0.80;0.65;;;9.30;84.30;;;;;;4998649;28;20041;-64
2021/01/29 05:18:12;;;;;;;0.10;0.10;;;9.20;84.30;;;;;;4994361;28;20041;-66
2021/01/29 05:20:37;;;;;;;;;;;9.20;84.30;;;;;;4924002;29;20050;-66
2021/01/29 05:23:06;;;;;;;0.98;0.10;;;9.20;84.40;;;;;;4982973;28;20385;-66
2021/01/29 05:25:52;;;;;;;1.27;0.10;;;9.10;84.80;;;;;;4998931;28;20493;-66
2021/01/29 05:28:27;;;;;;;0.57;0.30;;;9.10;84.50;;;;;;4996828;28;20731;-66
2021/01/29 05:30:56;;;;;;;0.35;0.10;;;9.00;84.40;;;;;;4986951;28;20065;-67
2021/01/29 05:33:32;;;;;;;0.30;0.10;;;9.00;84.70;;;;;;4994982;28;20040;-66
2021/01/29 05:36:15;;;;;;;0.52;0.10;;;9.00;84.90;;;;;;4993992;28;20046;-64
2021/01/29 05:39:02;;;;;;;1.27;0.25;;;9.00;85.10;;;;;;4995566;28;20076;-66
2021/01/29 05:41:59;;;;;;;0.20;0.20;;;9.00;85.40;;;;;;4995588;28;20056;-66
2021/01/29 05:44:43;;;;;;;0.70;0.45;;;9.00;85.50;;;;;;4994996;28;20049;-66
2021/01/29 05:47:29;;;;;;;0.13;0.10;;;9.00;85.40;;;;;;4996023;28;20027;-66
2021/01/29 05:50:13;;;;;;;0.20;0.10;;;9.00;85.30;;;;;;4996599;28;20038;-66
2021/01/29 05:53:29;;;;;;;0.17;0.10;;;8.90;85.10;;;;;;4996288;28;20042;-67
2021/01/29 05:56:03;;;;;;;0.10;0.10;;;8.90;85.30;;;;;;4978444;28;20045;-66
2021/01/29 05:58:32;;;;;;;1.15;0.28;;;8.90;84.90;;;;;;5001482;28;20030;-65
2021/01/29 06:01:07;;;;;;;0.35;0.30;;;8.80;85.00;;;;;;5001251;28;20027;-66
2021/01/29 06:03:32;;;;;;;;;;;8.80;85.00;;;;;;5001824;28;20421;-66
2021/01/29 06:06:39;;;;;;;0.55;0.30;;;8.80;85.40;;;;;;5002460;28;19909;-66
2021/01/29 06:09:10;;;;;;;0.50;0.20;;;8.80;85.20;;;;;;4930191;29;20388;-67
2021/01/29 06:12:06;;;;;;;0.20;0.20;;;8.80;85.30;;;;;;4987939;28;20125;-66
2021/01/29 06:14:51;;;;;;;0.82;0.35;;;8.70;85.90;;;;;;5001547;28;20042;-66
2021/01/29 06:17:38;;;;;;;1.10;0.30;;;8.70;85.60;;;;;;5000722;28;20030;-66
2021/01/29 06:20:47;;;;;;;1.27;0.20;;;8.70;85.70;;;;;;5001805;28;20573;-67
2021/01/29 06:23:34;;;;;;;0.80;0.30;;;8.60;86.20;;;;;;4959594;28;20034;-66
2021/01/29 06:26:18;;;;;;;0.47;0.30;;;8.70;86.40;;;;;;5002538;28;20045;-66
2021/01/29 06:29:07;;;;;;;0.30;0.20;;;8.60;86.20;;;;;;4998846;28;20026;-66
2021/01/29 06:31:51;;;;;;;0.30;0.30;;;8.60;86.40;;;;;;4998997;28;20140;-67
2021/01/29 06:34:36;;;;;;;0.20;0.20;;;8.60;86.30;;;;;;5000561;28;20635;-67
2021/01/29 06:37:33;;;;;;;0.22;0.20;;;8.60;86.70;;;;;;5000941;28;20425;-66
2021/01/29 06:40:20;;;;;;;0.57;0.30;;;8.60;86.60;;;;;;5000889;28;20571;-66
2021/01/29 06:43:18;;;;;;;0.50;0.40;;;8.60;86.90;;;;;;5000122;28;20395;-67
2021/01/29 06:46:07;;;;;;;0.22;0.20;;;8.60;86.90;;;;;;5000172;28;20054;-66
2021/01/29 06:48:47;;;;;;;0.20;0.20;;;8.70;86.90;;;;;;4999147;28;20042;-66
2021/01/29 06:51:12;;;;;;;0.13;0.13;;;8.60;87.00;;;;;;5000356;28;20454;-66
2021/01/29 06:54:09;;;;;;;0.25;0.20;;;8.70;87.20;;;;;;4999669;28;20093;-66
2021/01/29 06:56:44;;;;;;;0.52;0.30;;;8.70;87.80;;;;;;4999849;28;20153;-66
2021/01/29 06:59:24;;;;;;;0.30;0.30;;;8.70;87.40;;;;;;4999967;28;20041;-66
2021/01/29 07:02:19;;;;;;;3.85;0.30;;;8.80;87.40;;;;;;5000111;28;20041;-67
2021/01/29 07:04:56;;;;;;;1.00;0.60;;;8.80;87.80;;;;;;5001083;28;20077;-66
2021/01/29 07:07:57;;;;;;;0.82;0.40;;;8.80;87.40;;;;;;4997781;28;20591;-66
2021/01/29 07:10:50;;;;;;;0.20;0.20;;;8.90;88.10;;;;;;4996745;28;20147;-66
2021/01/29 07:13:31;;;;;;;0.90;0.40;;;8.90;88.10;;;;;;5000084;28;20373;-65
2021/01/29 07:16:27;;;;;;;0.20;0.20;;;8.90;87.70;;;;;;5000861;28;20371;-65
2021/01/29 07:18:52;;;;;;;;;;;9.00;87.40;;;;;;4999035;28;20045;-66
2021/01/29 07:21:24;;;;;;;0.43;0.10;;;9.00;84.60;;;;;;4998806;28;19921;-66
2021/01/29 07:24:01;;;;;;;0.10;0.10;;;9.00;84.80;;;;;;4999510;28;20501;-67
2021/01/29 07:26:44;;;;;;;0.30;0.10;;;9.00;83.30;;;;;;5000943;28;20045;-66
2021/01/29 07:29:26;;;;;;;1.00;0.22;;;9.10;82.10;;;;;;4999415;28;20117;-66
2021/01/29 07:32:05;;;;;;;1.20;0.03;;;9.10;81.90;;;;;;5000111;28;20035;-67
2021/01/29 07:34:39;;;;;;;0.10;0.10;;;9.20;81.70;;;;;;4996683;28;20688;-66
2021/01/29 07:37:08;;;;;;;0.10;0.10;;;9.20;82.20;;;;;;5000403;28;20097;-66
2021/01/29 07:39:51;;;;;;;0.50;0.20;;;9.20;81.90;;;;;;5000097;28;20049;-66
2021/01/29 07:42:36;;;;;;;0.57;0.30;;;9.30;82.30;;;;;;4998751;28;20058;-66
2021/01/29 07:45:32;;;;;;;0.30;0.30;;;9.30;82.20;;;;;;5000017;28;20061;-66
2021/01/29 07:48:35;;;;;;;0.77;0.60;;;9.30;82.30;;;;;;4999633;28;20122;-66
2021/01/29 07:51:31;;;;;;;0.55;0.40;;;9.30;82.30;;;;;;4994970;28;20092;-66
2021/01/29 07:54:06;;;;;;;0.57;0.57;;;9.30;82.30;;;;;;4978637;28;20129;-66
2021/01/29 07:56:43;;;;;;;0.50;0.38;;;9.30;82.60;;;;;;4981173;28;20108;-66
2021/01/29 07:59:47;;;;;;;1.08;0.57;;;9.40;82.60;;;;;;4979770;28;20042;-66
2021/01/29 08:02:31;;;;;;;0.82;0.40;;;9.40;82.60;;;;;;4972703;28;20034;-66
2021/01/29 08:05:21;;;;;;;0.40;0.40;;;9.40;82.70;;;;;;4984835;28;20034;-66
2021/01/29 08:07:57;;;;;;;0.68;0.30;;;9.40;82.70;;;;;;4983572;28;20030;-66
2021/01/29 08:10:37;;;;;;;0.50;0.50;;;9.40;82.80;;;;;;4976120;28;20081;-66
2021/01/29 08:13:33;;;;;;;3.10;1.50;;;9.30;82.80;;;;;;4978361;28;20117;-67
2021/01/29 08:16:01;;;;;;;4.38;3.30;;;9.30;82.90;;;;;;4979842;28;20085;-66
2021/01/29 08:18:45;;;;;;;7.55;4.53;;;9.30;83.00;;;;;;4977616;28;20039;-67
2021/01/29 08:21:36;;;;;;;6.47;4.70;;;9.30;83.20;;;;;;4979537;28;20018;-67
2021/01/29 08:24:01;;;;;;;1.17;1.08;;;9.30;83.30;;;;;;4979302;28;20502;-67
2021/01/29 08:26:36;;;;;;;0.73;0.65;;;9.30;84.20;;;;;;4978708;28;20042;-66
2021/01/29 08:29:20;;;;;;;;;;;9.30;83.60;;;;;;4978876;28;20046;-66
2021/01/29 08:31:52;;;;;;;0.82;0.57;;;9.30;83.60;;;;;;4979088;28;19965;-66
2021/01/29 08:34:26;;;;;;;1.30;0.70;;;9.30;83.50;;;;;;4979114;28;20062;-66
2021/01/29 08:37:14;;;;;;;1.00;0.57;;;9.40;83.70;;;;;;4994202;28;20419;-65
2021/01/29 08:39:55;;;;;;;0.93;0.50;;;9.40;83.80;;;;;;4977239;28;20042;-65
2021/01/29 08:42:29;;;;;;;0.50;0.40;;;9.40;83.80;;;;;;4977200;28;20074;-66
2021/01/29 08:45:25;;;;;;;0.30;0.30;;;9.40;84.80;;;;;;4977807;28;20035;-66
2021/01/29 08:47:54;;;;;;;1.38;0.22;;;9.40;84.10;;;;;;4977725;28;20045;-66
2021/01/29 08:50:29;;;;;;;0.20;0.20;;;9.40;84.00;;;;;;4977594;28;20529;-66
2021/01/29 08:53:16;;;;;;;1.45;0.38;;;9.40;84.10;;;;;;4978324;28;20034;-66
2021/01/29 08:56:17;;;;;;;0.40;0.40;;;9.50;84.20;;;;;;4978830;28;20041;-66
2021/01/29 08:58:59;;;;;;;1.15;0.60;;;9.50;84.20;;;;;;4975664;28;20041;-66
2021/01/29 09:01:44;;;;;;;0.40;0.30;;;9.50;84.10;;;;;;4978107;28;20069;-66
2021/01/29 09:04:42;;;;;;;0.50;0.40;;;9.50;84.10;;;;;;4979192;28;20034;-66
2021/01/29 09:07:29;;;;;;;0.98;0.60;;;9.50;84.10;;;;;;4946031;28;20465;-66
2021/01/29 09:10:06;;;;;;;0.60;0.40;;;9.60;84.10;;;;;;4985586;28;20030;-66
2021/01/29 09:12:33;;;;;;;1.70;1.40;;;9.60;84.00;;;;;;4975140;28;20038;-66
2021/01/29 09:15:21;;;;;;;1.65;1.30;;;9.60;84.00;;;;;;4979418;28;20392;-66
2021/01/29 09:17:58;;;;;;;1.58;1.33;;;9.60;83.80;;;;;;4977894;28;20043;-66
2021/01/29 09:20:32;;;;;;;0.80;0.55;;;9.60;83.60;;;;;;4977585;28;20057;-67
2021/01/29 09:23:04;;;;;;;0.43;0.40;;;9.60;83.50;;;;;;4976292;28;20126;-66
2021/01/29 09:25:51;;;;;;;0.40;0.40;;;9.70;83.60;;;;;;4978798;28;20054;-67
2021/01/29 09:28:27;;;;;;;0.30;0.30;;;9.60;83.60;;;;;;4978438;28;20046;-67
2021/01/29 09:31:02;;;;;;;0.90;0.80;;;9.70;83.80;;;;;;4981803;28;20038;-67
2021/01/29 09:33:47;;;;;;;1.67;1.02;;;9.70;84.70;;;;;;4987226;28;20031;-65
2021/01/29 09:36:22;;;;;;;1.10;0.30;;;9.70;83.90;;;;;;4977891;28;20038;-65
2021/01/29 09:39:22;;;;;;;0.40;0.30;;;9.70;83.90;;;;;;4991511;28;20034;-66
2021/01/29 09:42:20;;;;;;;0.25;0.20;;;9.80;84.00;;;;;;4936918;28;20463;-66
2021/01/29 09:44:55;;;;;;;0.45;0.45;;;9.80;83.90;;;;;;4943909;28;20030;-66
2021/01/29 09:47:23;;;;;;;0.57;0.30;;;9.90;83.80;;;;;;4987963;28;20035;-66
2021/01/29 09:49:57;;;;;;;0.52;0.47;;;9.90;83.70;;;;;;4977889;28;20051;-66
2021/01/29 09:52:35;;;;;;;0.73;0.30;;;9.90;83.60;;;;;;4958898;28;20027;-67
2021/01/29 09:55:34;;;;;;;0.30;0.30;;;10.00;83.60;;;;;;4976788;28;20042;-66
2021/01/29 09:58:29;;;;;;;0.90;0.30;;;10.00;83.30;;;;;;4957545;28;20042;-67
2021/01/29 10:01:04;;;;;;;1.23;0.30;;;10.10;82.90;;;;;;4981734;28;20042;-66
2021/01/29 10:03:54;;;;;;;0.43;0.30;;;10.10;82.80;;;;;;4996445;28;20026;-67
2021/01/29 10:06:28;;;;;;;0.30;0.30;;;10.10;83.00;;;;;;4997895;28;20026;-67
2021/01/29 10:09:02;;;;;;;0.70;0.50;;;10.10;83.10;;;;;;4990428;28;20389;-66
2021/01/29 10:11:43;;;;;;;0.43;0.40;;;10.20;83.30;;;;;;4973981;28;20040;-67
2021/01/29 10:14:57;;;;;;;0.70;0.50;;;10.20;83.30;;;;;;4977083;28;20522;-66
2021/01/29 10:17:27;;;;;;;0.80;0.80;;;10.30;83.10;;;;;;4968069;28;20498;-66
2021/01/29 10:20:04;;;;;;;0.55;0.45;;;10.40;83.30;;;;;;4997290;28;20069;-66
2021/01/29 10:23:04;;;;;;;0.50;0.28;;;10.40;83.10;;;;;;4998930;28;20113;-66
2021/01/29 10:25:54;;;;;;;1.33;0.20;;;10.40;82.50;;;;;;4997189;28;20038;-66
2021/01/29 10:28:46;;;;;;;1.27;0.22;;;10.50;82.20;;;;;;4997615;28;20045;-66
2021/01/29 10:31:14;;;;;;;0.20;0.10;;;10.50;81.80;;;;;;4996026;28;20096;-67
2021/01/29 10:33:45;;;;;;;0.20;0.20;;;10.60;82.00;;;;;;4997451;28;20300;-67
2021/01/29 10:36:27;;;;;;;0.22;0.17;;;10.70;81.90;;;;;;4997783;28;20505;-67
2021/01/29 10:38:57;;;;;;;0.50;0.20;;;10.80;81.30;;;;;;4992849;28;20030;-67
2021/01/29 10:41:48;;;;;;;0.65;0.10;;;10.90;81.30;;;;;;4978009;28;20058;-67
2021/01/29 10:44:22;;;;;;;0.50;0.20;;;11.00;80.40;;;;;;4980319;28;20027;-67
2021/01/29 10:47:15;;;;;;;0.20;0.20;;;11.00;80.60;;;;;;4997022;28;20117;-66
2021/01/29 10:50:06;;;;;;;0.38;0.20;;;11.10;80.50;;;;;;4980187;28;20046;-66
2021/01/29 10:53:06;;;;;;;0.32;0.17;;;11.20;80.50;;;;;;4980242;28;20023;-66
2021/01/29 10:55:35;;;;;;;0.70;0.30;;;11.30;80.40;;;;;;4976761;28;20403;-67
2021/01/29 10:58:38;;;;;;;0.35;0.20;;;11.40;80.60;;;;;;4978637;28;20047;-66
2021/01/29 11:01:20;;;;;;;1.85;0.35;;;11.50;79.10;;;;;;4992804;28;20054;-66
2021/01/29 11:03:57;;;;;;;0.50;0.35;;;11.60;79.10;;;;;;4979563;28;20045;-66
2021/01/29 11:06:44;;;;;;;0.82;0.40;;;11.60;79.10;;;;;;4979859;28;20565;-66
2021/01/29 11:09:33;;;;;;;0.30;0.30;;;11.70;79.30;;;;;;4980918;28;20038;-66
2021/01/29 11:12:24;;;;;;;0.70;0.30;;;11.70;78.70;;;;;;4977594;28;20049;-66
2021/01/29 11:15:16;;;;;;;1.30;1.10;;;11.80;77.30;;;;;;4978306;28;20065;-66
2021/01/29 11:18:00;;;;;;;0.80;0.50;;;11.80;78.00;;;;;;4980380;28;20133;-66
2021/01/29 11:20:32;;;;;;;0.77;0.20;;;11.80;77.20;;;;;;4979842;28;20073;-66
2021/01/29 11:23:23;;;;;;;0.60;0.32;;;11.90;76.90;;;;;;4981304;28;20061;-66
2021/01/29 11:26:14;;;;;;;0.68;0.30;;;11.90;76.30;;;;;;4980921;28;20122;-66
2021/01/29 11:28:46;;;;;;;0.88;0.35;;;11.90;76.70;;;;;;4979014;28;20085;-66
2021/01/29 11:31:16;;;;;;;0.40;0.20;;;11.90;76.60;;;;;;4980909;28;20108;-66
2021/01/29 11:33:46;;;;;;;0.80;0.30;;;12.00;76.70;;;;;;4978667;28;20569;-66
2021/01/29 11:36:36;;;;;;;1.08;0.28;;;12.00;75.90;;;;;;4978428;28;20133;-66
2021/01/29 11:39:27;;;;;;;0.30;0.20;;;12.00;75.20;;;;;;4992273;28;20046;-67
2021/01/29 11:41:53;;;;;;;0.95;0.20;;;12.10;74.90;;;;;;4978648;28;20030;-66
2021/01/29 11:44:35;;;;;;;0.30;0.25;;;12.10;75.70;;;;;;4979373;28;20035;-66
2021/01/29 11:47:23;;;;;;;0.40;0.10;;;12.10;73.90;;;;;;4979397;28;20043;-66
2021/01/29 11:50:28;;;;;;;0.45;0.17;;;12.10;73.50;;;;;;4980020;28;20031;-67
2021/01/29 11:53:02;;;;;;;0.20;0.17;;;12.10;72.70;;;;;;4981774;28;20027;-67
2021/01/29 11:55:53;;;;;;;0.68;0.20;;;12.10;72.20;;;;;;4991142;28;20041;-67
2021/01/29 11:58:34;;;;;;;0.85;0.20;;;12.00;73.10;;;;;;4978978;28;20505;-67
2021/01/29 12:01:07;;;;;;;0.68;0.20;;;11.90;73.90;;;;;;4992679;28;20394;-65
2021/01/29 12:04:00;;;;;;;0.85;0.10;;;11.90;74.30;;;;;;4980264;28;20104;-67
2021/01/29 12:06:46;;;;;;;0.30;0.20;;;11.80;74.40;;;;;;4979266;28;20034;-68
2021/01/29 12:09:41;;;;;;;0.20;0.20;;;11.80;73.20;;;;;;4978010;28;20039;-67
2021/01/29 12:12:37;;;;;;;1.00;0.10;;;11.70;73.80;;;;;;4978544;28;20035;-67
2021/01/29 12:15:19;;;;;;;0.38;0.20;;;11.70;73.30;;;;;;4979847;28;20035;-67
2021/01/29 12:17:55;;;;;;;0.25;0.10;;;11.70;73.00;;;;;;4978877;28;20074;-67
2021/01/29 12:20:26;;;;;;;0.20;0.10;;;11.70;72.90;;;;;;4978658;28;20121;-67
2021/01/29 12:23:29;;;;;;;0.63;0.20;;;11.60;73.30;;;;;;4980323;28;20042;-67
2021/01/29 12:26:02;;;;;;;0.47;0.10;;;11.60;72.50;;;;;;4978755;28;20577;-67
2021/01/29 12:28:58;;;;;;;0.38;0.10;;;11.60;73.70;;;;;;4979496;28;20057;-67
2021/01/29 12:31:44;;;;;;;0.38;0.10;;;11.60;73.00;;;;;;4979087;28;20034;-67
2021/01/29 12:34:19;;;;;;;0.28;0.22;;;11.60;72.00;;;;;;4979248;28;20046;-66
2021/01/29 12:37:11;;;;;;;0.75;0.38;;;11.60;73.50;;;;;;4978170;28;20042;-66
2021/01/29 12:39:53;;;;;;;0.45;0.20;;;11.60;73.30;;;;;;4978551;28;20050;-67
2021/01/29 12:42:28;;;;;;;0.20;0.20;;;11.70;74.00;;;;;;4977805;28;20366;-67
2021/01/29 12:45:04;;;;;;;0.28;0.10;;;11.70;73.60;;;;;;4994565;28;20034;-66
2021/01/29 12:47:57;;;;;;;0.10;0.10;;;11.80;74.90;;;;;;4978212;28;20043;-67
2021/01/29 12:50:56;;;;;;;0.13;0.10;;;11.80;72.70;;;;;;4977385;28;20110;-67
2021/01/29 12:53:54;;;;;;;1.45;0.32;;;11.80;73.30;;;;;;4977621;28;20031;-67
2021/01/29 12:56:19;;;;;;;0.40;0.10;;;11.80;74.00;;;;;;4963111;28;20047;-67
2021/01/29 12:58:51;;;;;;;0.50;0.17;;;11.80;73.90;;;;;;4976844;28;20088;-67
2021/01/29 13:01:42;;;;;;;0.28;0.17;;;11.80;74.10;;;;;;4977620;28;20049;-67
2021/01/29 13:04:17;;;;;;;1.85;0.20;;;11.80;73.90;;;;;;4960989;28;20035;-67
2021/01/29 13:07:09;;;;;;;3.40;0.20;;;11.70;73.50;;;;;;4979008;28;20035;-67
2021/01/29 13:10:04;;;;;;;1.00;0.10;;;11.70;73.80;;;;;;4978319;28;20031;-66
2021/01/29 13:12:39;;;;;;;0.80;0.20;;;11.70;73.20;;;;;;4977253;28;20516;-66
2021/01/29 13:15:22;;;;;;;0.57;0.20;;;11.70;73.10;;;;;;4978877;28;20073;-65
2021/01/29 13:18:05;;;;;;;2.67;0.75;;;11.70;72.40;;;;;;4977573;28;20533;-65
2021/01/29 13:20:38;;;;;;;0.60;0.30;;;11.70;72.20;;;;;;4977927;28;20034;-66
2021/01/29 13:23:18;;;;;;;0.77;0.30;;;11.60;72.50;;;;;;4979069;28;20038;-66
2021/01/29 13:26:06;;;;;;;1.35;0.40;;;11.60;71.80;;;;;;4978395;28;20050;-67
2021/01/29 13:28:37;;;;;;;1.33;0.38;;;11.60;72.40;;;;;;4977037;28;20042;-67
2021/01/29 13:31:26;;;;;;;0.57;0.30;;;11.50;72.70;;;;;;4977777;28;20672;-67
2021/01/29 13:33:54;;;;;;;0.98;0.40;;;11.50;72.00;;;;;;4976884;28;20105;-66
2021/01/29 13:36:28;;;;;;;1.08;0.40;;;11.50;72.20;;;;;;4977844;28;20030;-65
2021/01/29 13:39:05;;;;;;;0.35;0.13;;;11.40;71.40;;;;;;4982398;28;20040;-65
2021/01/29 13:41:48;;;;;;;2.30;0.20;;;11.30;71.50;;;;;;4986560;28;20406;-65
2021/01/29 13:44:54;;;;;;;7.85;0.50;;;11.30;71.10;;;;;;4978634;28;20085;-65
2021/01/29 13:47:35;;;;;;;0.57;0.32;;;11.20;71.30;;;;;;4986188;28;20064;-65
2021/01/29 13:50:19;;;;;;;0.65;0.20;;;11.10;71.70;;;;;;4976060;28;20194;-65
2021/01/29 13:52:57;;;;;;;1.80;0.20;;;11.00;71.50;;;;;;4996715;28;20073;-65
2021/01/29 13:55:45;;;;;;;1.67;0.38;;;11.00;71.70;;;;;;4997562;28;20088;-65
2021/01/29 13:58:45;;;;;;;1.05;0.45;;;10.90;71.80;;;;;;4997815;28;20520;-65
2021/01/29 14:01:20;;;;;;;0.75;0.40;;;10.90;72.10;;;;;;4965201;28;20434;-65
2021/01/29 14:03:55;;;;;;;0.88;0.30;;;10.80;71.60;;;;;;4997703;28;20040;-65